createdAt,value
2023-05-23T00:01:59.069Z,8.33
2023-05-23T00:04:32.169Z,8.77
2023-05-23T00:07:01.348Z,12.43
2023-05-23T00:09:33.218Z,7.83
2023-05-23T00:12:05.599Z,9.97
2023-05-23T00:14:46.459Z,7.83
2023-05-23T00:17:25.164Z,9.17
2023-05-23T00:19:58.162Z,8.77
2023-05-23T00:22:27.296Z,13.20
2023-05-23T00:25:02.419Z,8.17
2023-05-23T00:27:41.586Z,9.37
2023-05-23T00:30:12.844Z,8.43
2023-05-23T00:32:44.963Z,10.40
2023-05-23T00:35:15.413Z,7.30
2023-05-23T00:37:50.681Z,7.77
2023-05-23T00:40:20.159Z,10.43
2023-05-23T00:42:49.883Z,7.97
2023-05-23T00:45:23.699Z,7.97
2023-05-23T00:47:53.068Z,8.30
2023-05-23T00:50:29.914Z,8.80
2023-05-23T00:53:02.289Z,7.77
2023-05-23T00:55:32.022Z,7.90
2023-05-23T00:58:10.768Z,7.97
2023-05-23T01:00:41.534Z,7.60
2023-05-23T01:03:26.117Z,8.07
2023-05-23T01:05:55.453Z,8.60
2023-05-23T01:08:24.471Z,8.90
2023-05-23T01:10:56.529Z,8.17
2023-05-23T01:13:36.265Z,10.50
2023-05-23T01:16:12.018Z,8.00
2023-05-23T01:18:54.987Z,8.10
2023-05-23T01:21:26.204Z,7.80
2023-05-23T01:24:38.008Z,8.43
2023-05-23T01:27:17.969Z,8.83
2023-05-23T01:29:56.697Z,8.37
2023-05-23T01:32:27.423Z,8.20
2023-05-23T01:34:56.584Z,9.37
2023-05-23T01:37:25.531Z,7.93
2023-05-23T01:39:57.512Z,8.10
2023-05-23T01:42:29.727Z,9.57
2023-05-23T01:45:00.172Z,7.93
2023-05-23T01:47:32.223Z,8.53
2023-05-23T01:50:04.943Z,8.37
2023-05-23T01:52:35.394Z,8.10
2023-05-23T01:55:12.460Z,8.20
2023-05-23T01:57:56.801Z,8.47
2023-05-23T02:00:27.498Z,10.00
2023-05-23T02:02:57.073Z,8.70
2023-05-23T02:05:29.302Z,9.40
2023-05-23T02:08:05.548Z,9.13
2023-05-23T02:10:46.536Z,8.40
2023-05-23T02:13:23.609Z,9.67
2023-05-23T02:15:53.767Z,9.30
2023-05-23T02:18:22.723Z,9.17
2023-05-23T02:20:52.925Z,9.20
2023-05-23T02:23:21.701Z,11.20
2023-05-23T02:25:50.383Z,10.17
2023-05-23T02:28:19.034Z,9.50
2023-05-23T02:30:52.430Z,10.67
2023-05-23T02:33:24.293Z,9.20
2023-05-23T02:35:53.385Z,9.07
2023-05-23T02:38:27.325Z,8.93
2023-05-23T02:41:03.333Z,9.90
2023-05-23T02:43:38.712Z,9.20
2023-05-23T02:46:09.503Z,9.10
2023-05-23T02:48:38.927Z,9.70
2023-05-23T02:51:11.108Z,9.50
2023-05-23T02:53:40.818Z,9.90
2023-05-23T02:56:10.688Z,9.10
2023-05-23T02:58:40.252Z,10.57
2023-05-23T03:01:14.181Z,9.37
2023-05-23T03:03:45.147Z,10.07
2023-05-23T03:06:17.663Z,10.60
2023-05-23T03:08:47.083Z,8.90
2023-05-23T03:11:16.847Z,11.80
2023-05-23T03:13:45.517Z,8.67
2023-05-23T03:16:17.209Z,8.70
2023-05-23T03:18:46.088Z,9.00
2023-05-23T03:21:14.979Z,21.20
2023-05-23T03:23:44.152Z,34.90
2023-05-23T03:26:13.277Z,43.60
2023-05-23T03:28:42.016Z,43.23
2023-05-23T03:31:10.675Z,41.37
2023-05-23T03:33:40.885Z,54.67
2023-05-23T03:36:09.989Z,58.33
2023-05-23T03:38:38.659Z,46.37
2023-05-23T03:41:07.526Z,44.20
2023-05-23T03:43:36.227Z,43.87
2023-05-23T03:46:05.023Z,34.67
2023-05-23T03:48:33.818Z,18.27
2023-05-23T03:51:04.185Z,15.60
2023-05-23T03:53:33.936Z,15.60
2023-05-23T03:56:03.892Z,250.87
2023-05-23T03:58:32.602Z,182.90
2023-05-23T04:01:02.287Z,99.70
2023-05-23T04:03:34.071Z,91.23
2023-05-23T04:06:04.331Z,183.67
2023-05-23T04:08:34.201Z,112.80
2023-05-23T04:11:03.327Z,121.17
2023-05-23T04:13:32.468Z,37.38
2023-05-23T04:16:05.956Z,13.27
2023-05-23T04:18:34.846Z,11.48
2023-05-23T04:21:05.270Z,16.75
2023-05-23T04:23:33.868Z,21.17
2023-05-23T04:26:02.576Z,17.15
2023-05-23T04:28:31.661Z,9.65
2023-05-23T04:31:00.327Z,8.20
2023-05-23T04:33:30.771Z,13.00
2023-05-23T04:35:59.443Z,12.20
2023-05-23T04:38:29.868Z,11.60
2023-05-23T04:40:58.884Z,7.22
2023-05-23T04:43:29.580Z,7.57
2023-05-23T04:45:58.501Z,11.23
2023-05-23T04:48:27.859Z,5.57
2023-05-23T04:50:56.542Z,6.78
2023-05-23T04:53:25.102Z,7.70
2023-05-23T04:55:55.371Z,5.00
2023-05-23T04:58:24.123Z,5.57
2023-05-23T05:00:52.882Z,5.70
2023-05-23T05:03:22.039Z,5.63
2023-05-23T05:05:50.898Z,5.60
2023-05-23T05:08:21.039Z,10.15
2023-05-23T05:10:49.937Z,6.20
2023-05-23T05:13:19.994Z,9.23
2023-05-23T05:15:53.137Z,5.30
2023-05-23T05:18:21.796Z,6.53
2023-05-23T05:20:50.529Z,5.32
2023-05-23T05:23:19.268Z,19.20
2023-05-23T05:25:48.131Z,11.13
2023-05-23T05:28:16.831Z,9.35
2023-05-23T05:30:46.855Z,6.47
2023-05-23T05:33:15.834Z,6.43
2023-05-23T05:35:44.604Z,5.20
2023-05-23T05:38:13.750Z,4.43
2023-05-23T05:40:42.685Z,5.70
2023-05-23T05:43:11.570Z,4.97
2023-05-23T05:45:40.313Z,3.87
2023-05-23T05:48:10.535Z,6.18
2023-05-23T05:50:45.503Z,3.88
2023-05-23T05:53:14.904Z,4.43
2023-05-23T05:55:43.514Z,6.20
2023-05-23T05:58:12.185Z,6.18
2023-05-23T06:00:44.003Z,3.60
2023-05-23T06:03:14.590Z,3.70
2023-05-23T06:05:43.533Z,9.00
2023-05-23T06:08:12.220Z,3.50
2023-05-23T06:10:40.998Z,7.32
2023-05-23T06:13:10.151Z,3.83
2023-05-23T06:15:39.340Z,4.05
2023-05-23T06:18:08.553Z,3.50
2023-05-23T06:20:38.839Z,5.45
2023-05-23T06:23:09.012Z,3.00
2023-05-23T06:25:37.732Z,4.82
2023-05-23T06:28:06.694Z,4.20
2023-05-23T06:30:37.601Z,8.05
2023-05-23T06:33:06.473Z,4.70
2023-05-23T06:35:35.193Z,6.75
2023-05-23T06:38:05.418Z,4.68
2023-05-23T06:40:34.050Z,6.63
2023-05-23T06:43:02.743Z,4.30
2023-05-23T06:45:31.444Z,4.40
2023-05-23T06:48:01.494Z,7.40
2023-05-23T06:50:30.234Z,7.15
2023-05-23T06:52:58.845Z,3.47
2023-05-23T06:55:29.408Z,3.30
2023-05-23T06:57:58.004Z,3.42
2023-05-23T07:00:26.707Z,3.85
2023-05-23T07:02:55.473Z,3.85
2023-05-23T07:05:24.162Z,3.70
2023-05-23T07:07:52.810Z,3.47
2023-05-23T07:10:21.555Z,6.88
2023-05-23T07:12:51.751Z,5.80
2023-05-23T07:15:20.355Z,2.92
2023-05-23T07:17:49.090Z,3.40
2023-05-23T07:20:17.893Z,3.38
2023-05-23T07:22:46.528Z,3.90
2023-05-23T07:25:15.227Z,8.13
2023-05-23T07:27:43.847Z,4.20
2023-05-23T07:30:14.610Z,4.70
2023-05-23T07:32:43.387Z,3.22
2023-05-23T07:35:12.074Z,3.72
2023-05-23T07:37:40.762Z,3.58
2023-05-23T07:40:10.691Z,4.97
2023-05-23T07:42:39.350Z,3.53
2023-05-23T07:45:09.358Z,3.80
2023-05-23T07:47:39.761Z,3.17
2023-05-23T07:50:10.104Z,2.70
2023-05-23T07:52:39.348Z,3.38
2023-05-23T07:55:09.056Z,4.75
2023-05-23T07:57:37.761Z,2.80
2023-05-23T08:00:07.421Z,3.33
2023-05-23T08:02:36.075Z,4.80
2023-05-23T08:05:07.297Z,4.53
2023-05-23T08:07:36.180Z,2.60
2023-05-23T08:10:05.063Z,2.67
2023-05-23T08:12:34.047Z,4.50
2023-05-23T08:15:02.694Z,4.88
2023-05-23T08:17:31.401Z,2.50
2023-05-23T08:20:01.494Z,2.45
2023-05-23T08:22:31.786Z,2.97
2023-05-23T08:25:00.539Z,3.78
2023-05-23T08:27:30.447Z,3.17
2023-05-23T08:30:00.062Z,3.90
2023-05-23T08:32:28.937Z,4.10
2023-05-23T08:34:57.613Z,4.72
2023-05-23T08:37:26.524Z,2.92
2023-05-23T08:39:56.721Z,2.47
2023-05-23T08:42:25.621Z,2.45
2023-05-23T08:44:55.023Z,3.15
2023-05-23T08:47:24.166Z,4.97
2023-05-23T08:49:56.631Z,2.63
2023-05-23T08:52:26.884Z,2.22
2023-05-23T08:54:57.107Z,7.18
2023-05-23T08:57:27.068Z,4.40
2023-05-23T08:59:57.161Z,2.83
2023-05-23T09:02:26.904Z,3.17
2023-05-23T09:04:56.073Z,3.92
2023-05-23T09:07:24.874Z,3.88
2023-05-23T09:09:53.660Z,2.50
2023-05-23T09:12:23.827Z,3.67
2023-05-23T09:14:52.985Z,4.18
2023-05-23T09:17:22.712Z,2.55
2023-05-23T09:19:51.960Z,2.38
2023-05-23T09:22:27.255Z,2.40
2023-05-23T09:24:56.910Z,5.53
2023-05-23T09:27:27.230Z,3.05
2023-05-23T09:29:55.849Z,2.40
2023-05-23T09:32:24.565Z,2.50
2023-05-23T09:34:58.418Z,2.65
2023-05-23T09:37:34.343Z,3.55
2023-05-23T09:40:07.820Z,2.30
2023-05-23T09:42:43.219Z,2.65
2023-05-23T09:45:13.024Z,14.13
2023-05-23T09:47:41.793Z,3.63
2023-05-23T09:50:14.898Z,2.40
2023-05-23T09:52:43.405Z,2.50
2023-05-23T09:55:12.854Z,4.00
2023-05-23T09:57:44.286Z,5.18
2023-05-23T10:00:14.415Z,3.88
2023-05-23T10:03:08.375Z,3.50
2023-05-23T10:05:40.139Z,2.60
2023-05-23T10:08:12.404Z,2.40
2023-05-23T10:11:30.162Z,3.55
2023-05-23T10:14:02.482Z,2.15
2023-05-23T10:16:40.522Z,2.72
2023-05-23T10:19:14.838Z,6.88
2023-05-23T10:21:50.598Z,3.53
2023-05-23T10:24:20.419Z,2.75
2023-05-23T10:26:50.392Z,2.80
2023-05-23T10:29:20.659Z,3.30
2023-05-23T10:31:49.913Z,2.70
2023-05-23T10:34:27.048Z,2.88
2023-05-23T10:37:02.115Z,2.67
2023-05-23T10:39:44.712Z,2.95
2023-05-23T10:42:19.174Z,7.80
2023-05-23T10:44:49.243Z,18.92
2023-05-23T10:47:28.338Z,2.80
2023-05-23T10:49:57.523Z,2.63
2023-05-23T10:52:27.935Z,2.72
2023-05-23T10:54:57.555Z,2.53
2023-05-23T10:57:29.097Z,3.80
2023-05-23T10:59:59.151Z,2.92
2023-05-23T11:02:29.697Z,5.03
2023-05-23T11:05:24.023Z,2.72
2023-05-23T11:08:12.242Z,2.50
2023-05-23T11:10:55.703Z,5.10
2023-05-23T11:13:25.265Z,21.10
2023-05-23T11:15:55.450Z,3.58
2023-05-23T11:18:26.186Z,26.25
2023-05-23T11:21:23.892Z,5.47
2023-05-23T11:23:57.080Z,4.07
2023-05-23T11:26:32.509Z,2.60
2023-05-23T11:29:03.493Z,3.58
2023-05-23T11:31:40.735Z,3.33
2023-05-23T11:34:09.474Z,11.50
2023-05-23T11:36:38.886Z,15.18
2023-05-23T11:39:13.572Z,3.60
2023-05-23T11:41:44.734Z,5.88
2023-05-23T11:44:14.184Z,3.17
2023-05-23T11:47:02.161Z,6.25
2023-05-23T11:49:32.887Z,4.88
2023-05-23T11:52:03.187Z,4.07
2023-05-23T11:54:32.325Z,2.70
2023-05-23T11:57:01.048Z,4.03
2023-05-23T11:59:30.112Z,2.80
2023-05-23T12:02:00.159Z,2.83
2023-05-23T12:04:29.460Z,3.50
2023-05-23T12:06:58.217Z,14.47
2023-05-23T12:09:27.059Z,5.35
2023-05-23T12:11:55.846Z,4.10
2023-05-23T12:14:51.588Z,3.95
2023-05-23T12:17:22.704Z,2.90
2023-05-23T12:19:53.117Z,2.55
2023-05-23T12:22:25.928Z,3.05
2023-05-23T12:24:56.216Z,3.35
2023-05-23T12:27:31.792Z,4.13
2023-05-23T12:30:10.826Z,3.67
2023-05-23T12:32:42.272Z,5.70
2023-05-23T12:35:13.430Z,3.63
2023-05-23T12:37:43.183Z,2.95
2023-05-23T12:40:14.735Z,4.45
2023-05-23T12:42:55.871Z,3.17
2023-05-23T12:48:37.520Z,6.07
2023-05-23T12:51:06.892Z,3.10
2023-05-23T12:53:36.778Z,3.22
2023-05-23T12:56:05.665Z,4.03
2023-05-23T12:58:34.656Z,2.85
2023-05-23T13:01:04.457Z,3.15
2023-05-23T13:03:37.659Z,3.00
2023-05-23T13:06:07.507Z,4.15
2023-05-23T13:08:36.249Z,43.53
2023-05-23T13:11:05.730Z,11.02
2023-05-23T13:13:34.394Z,5.88
2023-05-23T13:16:03.483Z,4.68
2023-05-23T13:18:32.421Z,5.18
2023-05-23T13:21:02.623Z,3.85
2023-05-23T13:23:31.201Z,4.47
2023-05-23T13:26:00.163Z,3.20
2023-05-23T13:28:28.957Z,4.38
2023-05-23T13:30:57.664Z,13.05
2023-05-23T13:33:26.415Z,5.82
2023-05-23T13:35:55.121Z,5.05
2023-05-23T13:38:27.911Z,3.80
2023-05-23T13:40:56.769Z,11.02
2023-05-23T13:43:26.012Z,6.55
2023-05-23T13:45:57.614Z,3.72
2023-05-23T13:48:26.730Z,5.55
2023-05-23T13:50:56.706Z,5.85
2023-05-23T13:53:28.011Z,4.97
2023-05-23T13:55:56.924Z,3.33
2023-05-23T13:58:25.769Z,4.07
2023-05-23T14:00:54.761Z,3.20
2023-05-23T14:03:24.868Z,3.65
2023-05-23T14:05:53.864Z,3.35
2023-05-23T14:08:22.816Z,3.50
2023-05-23T14:10:53.479Z,4.45
2023-05-23T14:13:23.418Z,4.55
2023-05-23T14:15:53.651Z,3.70
2023-05-23T14:18:22.604Z,4.82
2023-05-23T14:20:51.426Z,7.28
2023-05-23T14:23:20.103Z,5.88
2023-05-23T14:25:48.978Z,3.35
2023-05-23T14:28:19.304Z,3.85
2023-05-23T14:30:48.248Z,3.20
2023-05-23T14:33:17.204Z,5.00
2023-05-23T14:35:46.180Z,4.70
2023-05-23T14:38:15.309Z,3.45
2023-05-23T14:40:44.619Z,4.80
2023-05-23T14:43:13.818Z,3.47
2023-05-23T14:45:44.340Z,3.17
2023-05-23T14:48:13.368Z,3.60
2023-05-23T14:50:42.853Z,4.95
2023-05-23T14:53:11.558Z,3.72
2023-05-23T14:55:40.556Z,3.63
2023-05-23T14:58:09.514Z,3.78
2023-05-23T15:00:38.714Z,4.18
2023-05-23T15:03:09.067Z,4.25
2023-05-23T15:05:37.868Z,6.32
2023-05-23T15:08:06.794Z,3.97
2023-05-23T15:10:35.734Z,4.15
2023-05-23T15:13:04.779Z,5.13
2023-05-23T15:15:37.702Z,5.40
2023-05-23T15:18:10.486Z,5.47
2023-05-23T15:20:39.462Z,4.60
2023-05-23T15:23:08.355Z,37.00
2023-05-23T15:25:48.037Z,8.93
2023-05-23T15:28:18.504Z,5.88
2023-05-23T15:30:47.467Z,5.47
2023-05-23T15:33:17.728Z,6.22
2023-05-23T15:35:46.669Z,17.10
2023-05-23T15:38:17.105Z,10.10
2023-05-23T15:40:53.027Z,5.95
2023-05-23T15:43:22.274Z,5.28
2023-05-23T15:45:52.795Z,6.75
2023-05-23T15:48:23.311Z,5.68
2023-05-23T15:50:52.390Z,6.32
2023-05-23T15:53:22.885Z,4.45
2023-05-23T15:55:51.838Z,4.70
2023-05-23T15:58:20.660Z,4.82
2023-05-23T16:00:49.337Z,5.15
2023-05-23T16:03:18.099Z,6.70
2023-05-23T16:05:48.505Z,5.40
2023-05-23T16:08:17.164Z,10.05
2023-05-23T16:10:45.835Z,4.82
2023-05-23T16:15:43.431Z,3.70
2023-05-23T16:18:12.238Z,4.38
2023-05-23T16:20:40.948Z,6.63
2023-05-23T16:23:10.954Z,5.10
2023-05-23T16:25:40.154Z,5.22
2023-05-23T16:28:09.031Z,3.70
2023-05-23T16:30:37.659Z,3.95
2023-05-23T16:33:06.927Z,4.38
2023-05-23T16:35:35.816Z,3.90
2023-05-23T16:38:04.440Z,4.60
2023-05-23T16:40:34.496Z,5.07
2023-05-23T16:43:04.374Z,5.72
2023-05-23T16:45:33.271Z,7.32
2023-05-23T16:48:02.251Z,3.90
2023-05-23T16:50:30.973Z,5.60
2023-05-23T16:52:59.592Z,5.45
2023-05-23T16:55:28.152Z,16.98
2023-05-23T16:57:58.460Z,4.00
2023-05-23T17:00:28.757Z,4.30
2023-05-23T17:02:57.416Z,4.10
2023-05-23T17:05:26.999Z,6.05
2023-05-23T17:07:55.796Z,5.47
2023-05-23T17:10:24.458Z,9.30
2023-05-23T17:12:53.027Z,4.03
2023-05-23T17:15:23.091Z,4.85
2023-05-23T17:17:53.847Z,4.00
2023-05-23T17:20:25.482Z,4.65
2023-05-23T17:22:54.201Z,6.05
2023-05-23T17:25:22.960Z,4.45
2023-05-23T17:27:51.729Z,4.13
2023-05-23T17:30:21.067Z,7.43
2023-05-23T17:32:51.620Z,4.85
2023-05-23T17:35:20.609Z,8.73
2023-05-23T17:37:49.276Z,5.90
2023-05-23T17:40:18.066Z,5.22
2023-05-23T17:42:47.186Z,5.03
2023-05-23T17:45:16.200Z,5.60
2023-05-23T17:47:46.297Z,4.30
2023-05-23T17:50:16.916Z,7.60
2023-05-23T17:52:46.127Z,4.15
2023-05-23T17:55:14.815Z,6.53
2023-05-23T17:57:43.600Z,6.15
2023-05-23T18:00:13.489Z,6.00
2023-05-23T18:02:42.175Z,8.57
2023-05-23T18:05:11.536Z,5.50
2023-05-23T18:07:42.951Z,5.22
2023-05-23T18:10:13.069Z,5.88
2023-05-23T18:12:42.176Z,7.25
2023-05-23T18:15:11.533Z,7.45
2023-05-23T18:17:40.337Z,6.30
2023-05-23T18:20:10.216Z,5.88
2023-05-23T18:22:38.887Z,7.68
2023-05-23T18:25:10.125Z,7.15
2023-05-23T18:27:38.747Z,7.65
2023-05-23T18:30:08.774Z,8.73
2023-05-23T18:32:37.437Z,8.15
2023-05-23T18:35:06.951Z,12.75
2023-05-23T18:37:35.785Z,5.40
2023-05-23T18:40:04.528Z,5.30
2023-05-23T18:42:34.512Z,7.50
2023-05-23T18:45:03.186Z,5.35
2023-05-23T18:47:31.945Z,9.90
2023-05-23T18:50:01.215Z,5.70
2023-05-23T18:52:30.949Z,12.40
2023-05-23T18:54:59.562Z,6.93
2023-05-23T18:57:28.923Z,6.55
2023-05-23T18:59:59.201Z,5.88
2023-05-23T19:02:28.239Z,6.65
2023-05-23T19:04:56.865Z,8.27
2023-05-23T19:07:25.656Z,6.45
2023-05-23T19:09:54.341Z,6.57
2023-05-23T19:12:22.985Z,5.10
2023-05-23T19:14:51.609Z,6.72
2023-05-23T19:17:21.624Z,8.75
2023-05-23T19:19:50.440Z,5.55
2023-05-23T19:22:19.020Z,6.55
2023-05-23T19:24:49.514Z,8.30
2023-05-23T19:27:18.219Z,6.95
2023-05-23T19:29:46.859Z,8.07
2023-05-23T19:32:15.760Z,7.05
2023-05-23T19:34:46.759Z,8.73
2023-05-23T19:37:15.836Z,5.72
2023-05-23T19:39:47.035Z,9.68
2023-05-23T19:42:15.649Z,7.70
2023-05-23T19:44:45.121Z,6.78
2023-05-23T19:47:13.732Z,7.07
2023-05-23T19:49:42.302Z,7.53
2023-05-23T19:52:12.358Z,7.63
2023-05-23T19:54:41.233Z,5.82
2023-05-23T19:57:09.874Z,6.00
2023-05-23T19:59:38.543Z,9.20
2023-05-23T20:02:07.237Z,10.07
2023-05-23T20:04:35.917Z,8.20
2023-05-23T20:07:04.823Z,9.65
2023-05-23T20:09:34.929Z,7.68
2023-05-23T20:12:03.641Z,6.25
2023-05-23T20:14:32.811Z,9.25
2023-05-23T20:17:01.513Z,6.40
2023-05-23T20:19:30.254Z,10.45
2023-05-23T20:21:59.006Z,8.98
2023-05-23T20:24:30.578Z,7.32
2023-05-23T20:27:01.014Z,6.65
2023-05-23T20:29:29.877Z,8.95
2023-05-23T20:31:58.955Z,7.38
2023-05-23T20:34:27.566Z,6.97
2023-05-23T20:36:56.197Z,7.90
2023-05-23T20:39:25.407Z,8.10
2023-05-23T20:41:54.967Z,8.40
2023-05-23T20:44:25.092Z,8.13
2023-05-23T20:46:54.391Z,7.25
2023-05-23T20:49:23.616Z,9.80
2023-05-23T20:51:52.299Z,8.98
2023-05-23T20:54:21.439Z,7.43
2023-05-23T20:56:52.824Z,6.88
2023-05-23T20:59:21.513Z,8.50
2023-05-23T21:01:51.865Z,9.20
2023-05-23T21:04:20.595Z,6.63
2023-05-23T21:06:49.440Z,6.72
2023-05-23T21:09:18.350Z,7.00
2023-05-23T21:11:47.343Z,7.05
2023-05-23T21:14:15.998Z,8.85
2023-05-23T21:16:44.907Z,8.23
2023-05-23T21:19:15.451Z,7.53
2023-05-23T21:21:44.492Z,7.47
2023-05-23T21:24:14.495Z,8.43
2023-05-23T21:26:43.804Z,7.70
2023-05-23T21:29:12.591Z,8.93
2023-05-23T21:31:42.124Z,7.78
2023-05-23T21:34:23.262Z,7.35
2023-05-23T21:36:54.903Z,9.32
2023-05-23T21:39:23.551Z,7.25
2023-05-23T21:41:52.557Z,7.90
2023-05-23T21:44:21.469Z,8.27
2023-05-23T21:46:50.289Z,7.30
2023-05-23T21:49:19.187Z,7.63
2023-05-23T21:51:47.902Z,10.10
2023-05-23T21:54:18.058Z,8.77
2023-05-23T21:56:46.869Z,9.05
2023-05-23T21:59:15.653Z,8.32
2023-05-23T22:01:44.298Z,7.78
2023-05-23T22:04:12.908Z,7.28
2023-05-23T22:06:41.359Z,8.48
2023-05-23T22:09:12.637Z,8.65
2023-05-23T22:11:42.810Z,7.10
2023-05-23T22:14:11.896Z,7.25
2023-05-23T22:16:45.989Z,7.50
2023-05-23T22:19:18.197Z,7.30
2023-05-23T22:21:49.582Z,9.50
2023-05-23T22:24:18.178Z,8.13
2023-05-23T22:26:48.118Z,7.65
2023-05-23T22:29:16.696Z,8.10
2023-05-23T22:31:46.940Z,7.55
2023-05-23T22:34:16.257Z,6.70
2023-05-23T22:36:44.984Z,12.90
2023-05-23T22:39:13.884Z,10.10
2023-05-23T22:41:42.521Z,7.18
2023-05-23T22:44:23.679Z,7.97
2023-05-23T22:47:17.770Z,7.47
2023-05-23T22:49:46.562Z,6.85
2023-05-23T22:52:18.341Z,7.20
2023-05-23T22:54:46.970Z,7.93
2023-05-23T22:57:15.396Z,12.30
2023-05-23T22:59:45.308Z,6.75
2023-05-23T23:02:13.802Z,6.55
2023-05-23T23:04:44.415Z,7.43
2023-05-23T23:07:12.934Z,7.75
2023-05-23T23:09:41.387Z,6.70
2023-05-23T23:12:09.871Z,7.32
2023-05-23T23:14:38.353Z,6.60
2023-05-23T23:17:08.317Z,7.20
2023-05-23T23:19:36.773Z,7.13
2023-05-23T23:22:05.598Z,6.35
2023-05-23T23:24:34.129Z,7.28
2023-05-23T23:27:02.626Z,8.63
2023-05-23T23:29:31.500Z,6.68
2023-05-23T23:32:00.126Z,7.28
2023-05-23T23:34:30.265Z,6.22
2023-05-23T23:36:58.968Z,7.90
2023-05-23T23:39:27.548Z,10.27
2023-05-23T23:41:56.160Z,7.47
2023-05-23T23:44:24.742Z,12.73
2023-05-23T23:46:53.401Z,8.57
2023-05-23T23:49:22.162Z,6.30
2023-05-23T23:51:52.963Z,7.75
2023-05-23T23:54:21.609Z,6.47
2023-05-23T23:56:50.275Z,6.20
2023-05-23T23:59:18.911Z,6.30
